Time;durP1;ratioP1;P1;durP2;ratioP2;P2;SDS_P1;SDS_P2;PMS_P1;PMS_P2;Temp;Humidity;BMP_temperature;BMP_pressure;BME280_temperature;BME280_humidity;BME280_pressure;Samples;Min_cycle;Max_cycle;Signal;HPM_P1;HPM_P2
2023/06/06 05:50:41;;;;;;;8.27;5.30;;;;;;;;;;10520890;28;20453;-83
2023/06/06 05:55:42;;;;;;;10.50;6.78;;;;;;;;;;10518712;28;20025;-83
2023/06/06 06:12:38;;;;;;;10.15;5.68;;;;;;;;;;10411406;28;20034;-86
2023/06/06 06:46:38;;;;;;;11.98;6.97;;;;;;;;;;10410823;28;20080;-87
2023/06/06 07:08:44;;;;;;;5.45;3.30;;;;;;;;;;10397941;28;20041;-82
2023/06/06 07:13:58;;;;;;;9.65;4.93;;;;;;;;;;10385177;28;20053;-86
2023/06/06 07:19:19;;;;;;;7.35;4.75;;;;;;;;;;10378442;28;20455;-87
2023/06/06 07:24:20;;;;;;;12.55;6.55;;;;;;;;;;10366097;28;20041;-86
2023/06/06 07:30:01;;;;;;;12.90;6.75;;;;;;;;;;10374457;28;20226;-87
2023/06/06 07:40:41;;;;;;;8.13;5.47;;;;;;;;;;10384597;28;20030;-84
2023/06/06 07:45:48;;;;;;;6.85;4.85;;;;;;;;;;10387769;28;20080;-83
2023/06/06 07:50:54;;;;;;;6.22;4.90;;;;;;;;;;10382002;28;20061;-83
2023/06/06 07:55:58;;;;;;;6.10;4.28;;;;;;;;;;10382460;28;20022;-84
2023/06/06 08:01:23;;;;;;;10.00;5.38;;;;;;;;;;10385634;28;20029;-84
2023/06/06 08:06:48;;;;;;;9.57;5.25;;;;;;;;;;10381498;28;20041;-85
2023/06/06 08:11:51;;;;;;;5.72;4.60;;;;;;;;;;10384575;28;20034;-85
2023/06/06 08:16:52;;;;;;;8.63;6.15;;;;;;;;;;10386725;28;20034;-85
2023/06/06 08:21:54;;;;;;;10.98;6.95;;;;;;;;;;10395698;28;20018;-85
2023/06/06 08:26:55;;;;;;;8.32;5.60;;;;;;;;;;10421351;28;20068;-85
2023/06/06 08:31:56;;;;;;;6.47;5.30;;;;;;;;;;10415188;28;20183;-85
2023/06/06 08:36:57;;;;;;;7.78;4.25;;;;;;;;;;10382717;28;20030;-84
2023/06/06 08:41:59;;;;;;;7.78;5.32;;;;;;;;;;10391156;28;20034;-85
2023/06/06 08:47:00;;;;;;;9.27;6.32;;;;;;;;;;10384659;28;20472;-83
2023/06/06 08:52:02;;;;;;;13.25;7.57;;;;;;;;;;10380202;28;20025;-84
2023/06/06 08:57:07;;;;;;;9.25;6.10;;;;;;;;;;10378510;28;20480;-84
2023/06/06 09:02:09;;;;;;;12.73;9.52;;;;;;;;;;10382911;28;20108;-84
2023/06/06 09:07:12;;;;;;;9.32;5.53;;;;;;;;;;10380081;28;20395;-84
2023/06/06 09:12:14;;;;;;;10.65;8.82;;;;;;;;;;10378529;28;20041;-85
2023/06/06 09:17:15;;;;;;;8.15;5.78;;;;;;;;;;10383942;28;20032;-83
2023/06/06 09:22:16;;;;;;;10.23;5.35;;;;;;;;;;10380449;28;20191;-84
2023/06/06 09:27:30;;;;;;;9.00;6.32;;;;;;;;;;10379489;28;20033;-84
2023/06/06 09:32:32;;;;;;;8.63;5.25;;;;;;;;;;10387103;28;20485;-85
2023/06/06 09:37:33;;;;;;;11.05;6.00;;;;;;;;;;10382752;28;20033;-85
2023/06/06 09:42:34;;;;;;;8.73;5.63;;;;;;;;;;10406554;28;20002;-84
2023/06/06 09:47:35;;;;;;;7.03;5.18;;;;;;;;;;10396905;28;20033;-86
2023/06/06 09:52:37;;;;;;;14.05;5.97;;;;;;;;;;10381630;28;20018;-85
2023/06/06 09:57:39;;;;;;;8.38;4.90;;;;;;;;;;10376751;28;20030;-84
2023/06/06 10:02:44;;;;;;;9.52;4.63;;;;;;;;;;10375441;28;20550;-85
2023/06/06 10:07:45;;;;;;;7.57;4.70;;;;;;;;;;10378578;28;20041;-85
2023/06/06 10:12:48;;;;;;;8.20;6.15;;;;;;;;;;10376110;28;20026;-88
2023/06/06 10:17:51;;;;;;;8.40;5.50;;;;;;;;;;10377305;28;20021;-88
2023/06/06 10:22:52;;;;;;;7.78;5.60;;;;;;;;;;10386193;28;20488;-88
2023/06/06 10:28:11;;;;;;;9.18;6.03;;;;;;;;;;10375699;28;20048;-88
2023/06/06 10:33:13;;;;;;;;;;;;;;;;;;10384924;28;20049;-87
2023/06/06 10:38:14;;;;;;;7.03;4.63;;;;;;;;;;10381864;28;20318;-89
2023/06/06 10:43:17;;;;;;;6.65;5.30;;;;;;;;;;10382795;28;20025;-88
2023/06/06 10:48:36;;;;;;;6.43;4.28;;;;;;;;;;10381814;28;20112;-89
2023/06/06 10:53:41;;;;;;;6.20;4.25;;;;;;;;;;10383099;28;20036;-88
2023/06/06 10:58:44;;;;;;;6.90;4.35;;;;;;;;;;10382697;28;20092;-87
2023/06/06 11:03:45;;;;;;;7.93;5.03;;;;;;;;;;10382229;28;20014;-86
2023/06/06 11:08:49;;;;;;;8.27;4.72;;;;;;;;;;10381369;28;20034;-87
2023/06/06 11:13:51;;;;;;;7.40;4.60;;;;;;;;;;10384004;28;20066;-87
2023/06/06 11:19:00;;;;;;;7.28;4.20;;;;;;;;;;10382342;28;20396;-86
2023/06/06 11:24:02;;;;;;;8.23;4.33;;;;;;;;;;10382706;28;20094;-86
2023/06/06 11:29:04;;;;;;;8.85;5.20;;;;;;;;;;10397768;28;20030;-86
2023/06/06 11:34:09;;;;;;;8.95;7.18;;;;;;;;;;10409394;28;20034;-88
2023/06/06 11:39:11;;;;;;;9.50;4.50;;;;;;;;;;10382946;28;20121;-87
2023/06/06 11:44:14;;;;;;;8.40;4.63;;;;;;;;;;10383291;28;20033;-86
2023/06/06 11:49:15;;;;;;;8.50;4.65;;;;;;;;;;10394337;28;20095;-88
2023/06/06 11:54:17;;;;;;;9.77;3.97;;;;;;;;;;10392005;28;20507;-87
2023/06/06 11:59:19;;;;;;;7.05;4.22;;;;;;;;;;10386255;28;20038;-86
2023/06/06 12:04:30;;;;;;;7.93;4.00;;;;;;;;;;10384892;28;20029;-89
2023/06/06 12:09:32;;;;;;;7.35;3.70;;;;;;;;;;10385141;28;20034;-86
2023/06/06 12:14:33;;;;;;;6.68;4.35;;;;;;;;;;10384302;28;20029;-86
2023/06/06 12:19:35;;;;;;;7.57;4.00;;;;;;;;;;10383597;28;20599;-87
2023/06/06 12:24:39;;;;;;;7.10;3.80;;;;;;;;;;10380365;28;20030;-86
2023/06/06 12:29:50;;;;;;;6.18;4.13;;;;;;;;;;10387650;28;20025;-87
2023/06/06 12:35:01;;;;;;;11.45;5.10;;;;;;;;;;10403354;28;20034;-86
2023/06/06 12:40:08;;;;;;;7.93;4.10;;;;;;;;;;10392640;28;20033;-87
2023/06/06 12:45:12;;;;;;;6.47;4.00;;;;;;;;;;10412555;28;20022;-87
2023/06/06 12:50:16;;;;;;;14.85;7.88;;;;;;;;;;10412607;28;20057;-86
2023/06/06 12:55:17;;;;;;;11.20;7.07;;;;;;;;;;10414315;28;20061;-86
2023/06/06 13:00:19;;;;;;;7.20;3.83;;;;;;;;;;10414415;28;20205;-86
2023/06/06 13:05:20;;;;;;;6.18;3.72;;;;;;;;;;10416705;28;20008;-84
2023/06/06 13:10:21;;;;;;;8.00;3.88;;;;;;;;;;10416564;28;20034;-84
2023/06/06 13:15:26;;;;;;;8.40;4.00;;;;;;;;;;10412720;28;20018;-87
2023/06/06 13:20:27;;;;;;;9.23;6.88;;;;;;;;;;10389222;28;20056;-86
2023/06/06 13:25:28;;;;;;;8.35;4.40;;;;;;;;;;10377045;28;20125;-86
2023/06/06 13:30:32;;;;;;;7.60;4.35;;;;;;;;;;10376945;28;20116;-87
2023/06/06 13:35:36;;;;;;;6.45;4.18;;;;;;;;;;10375190;28;20129;-86
2023/06/06 13:40:37;;;;;;;8.82;3.95;;;;;;;;;;10384302;28;20476;-86
2023/06/06 13:45:38;;;;;;;5.45;3.83;;;;;;;;;;10375878;28;20033;-85
2023/06/06 13:50:40;;;;;;;6.95;5.32;;;;;;;;;;10376451;28;20034;-86
2023/06/06 13:55:41;;;;;;;7.70;3.72;;;;;;;;;;10377575;28;20113;-86
2023/06/06 14:00:42;;;;;;;7.40;4.20;;;;;;;;;;10378272;28;20066;-86
2023/06/06 14:05:43;;;;;;;6.95;3.83;;;;;;;;;;10378866;28;20026;-87
2023/06/06 14:10:44;;;;;;;7.47;3.70;;;;;;;;;;10387868;28;20034;-88
2023/06/06 14:15:52;;;;;;;5.03;3.65;;;;;;;;;;10404998;28;20440;-87
2023/06/06 14:21:10;;;;;;;6.07;3.80;;;;;;;;;;10384305;28;20038;-84
2023/06/06 14:26:11;;;;;;;9.18;5.35;;;;;;;;;;10383581;28;20153;-83
2023/06/06 14:31:12;;;;;;;6.85;5.15;;;;;;;;;;10384042;28;20079;-85
2023/06/06 14:36:15;;;;;;;4.30;3.35;;;;;;;;;;10384724;28;20753;-84
2023/06/06 14:41:17;;;;;;;8.65;4.68;;;;;;;;;;10383601;28;20026;-84
2023/06/06 14:46:18;;;;;;;7.38;3.35;;;;;;;;;;10390467;28;20018;-85
2023/06/06 14:51:19;;;;;;;5.82;3.88;;;;;;;;;;10384477;28;20045;-83
2023/06/06 14:56:20;;;;;;;6.15;3.72;;;;;;;;;;10383386;28;20029;-85
2023/06/06 15:01:22;;;;;;;9.15;7.13;;;;;;;;;;10383962;28;20034;-85
2023/06/06 15:06:24;;;;;;;5.22;3.20;;;;;;;;;;10382152;28;20030;-85
2023/06/06 15:11:25;;;;;;;7.07;4.10;;;;;;;;;;10380421;28;20065;-85
2023/06/06 15:16:26;;;;;;;5.25;3.13;;;;;;;;;;10382230;28;20022;-85
2023/06/06 15:21:27;;;;;;;4.88;2.90;;;;;;;;;;10386938;28;20101;-86
2023/06/06 15:26:28;;;;;;;5.95;2.83;;;;;;;;;;10384310;28;20084;-85
2023/06/06 15:31:30;;;;;;;11.18;4.22;;;;;;;;;;10384453;28;20022;-86
2023/06/06 15:36:31;;;;;;;8.18;3.20;;;;;;;;;;10388152;28;20034;-85
2023/06/06 15:41:32;;;;;;;11.98;9.95;;;;;;;;;;10383249;28;20435;-84
2023/06/06 15:46:33;;;;;;;4.30;3.10;;;;;;;;;;10384461;28;20030;-83
2023/06/06 15:51:35;;;;;;;5.00;3.53;;;;;;;;;;10385074;28;20030;-84
2023/06/06 15:56:36;;;;;;;4.88;2.65;;;;;;;;;;10384082;28;20448;-84
2023/06/06 16:01:37;;;;;;;5.55;3.90;;;;;;;;;;10387450;28;20056;-84
2023/06/06 16:06:38;;;;;;;7.68;5.68;;;;;;;;;;10389173;28;20088;-84
2023/06/06 16:11:39;;;;;;;6.78;4.32;;;;;;;;;;10387476;28;20069;-85
2023/06/06 16:16:40;;;;;;;4.15;2.78;;;;;;;;;;10389074;28;20452;-85
2023/06/06 16:21:41;;;;;;;3.55;3.05;;;;;;;;;;10382504;28;20060;-82
2023/06/06 16:26:42;;;;;;;4.40;4.00;;;;;;;;;;10381433;28;20084;-90
2023/06/06 16:31:44;;;;;;;3.92;3.00;;;;;;;;;;10382004;28;20136;-89
2023/06/06 16:36:45;;;;;;;7.60;3.47;;;;;;;;;;10415738;28;20145;-89
2023/06/06 16:41:46;;;;;;;5.85;5.13;;;;;;;;;;10396090;28;20056;-86
2023/06/06 16:46:47;;;;;;;7.00;4.10;;;;;;;;;;10379062;28;20064;-90
2023/06/06 16:51:48;;;;;;;4.80;3.67;;;;;;;;;;10397651;28;20069;-89
2023/06/06 16:56:49;;;;;;;4.45;3.10;;;;;;;;;;10396438;28;20026;-90
2023/06/06 17:01:50;;;;;;;4.22;3.60;;;;;;;;;;10375790;28;20030;-90
2023/06/06 17:06:51;;;;;;;3.85;3.40;;;;;;;;;;10376484;28;20030;-90
2023/06/06 17:11:52;;;;;;;4.22;2.92;;;;;;;;;;10375662;28;20105;-90
2023/06/06 17:16:53;;;;;;;5.75;3.17;;;;;;;;;;10379579;28;20026;-89
2023/06/06 17:21:54;;;;;;;4.05;2.95;;;;;;;;;;10393414;28;20018;-88
2023/06/06 17:26:55;;;;;;;4.22;3.13;;;;;;;;;;10387994;28;20030;-90
2023/06/06 17:31:57;;;;;;;4.00;3.17;;;;;;;;;;10376870;28;20033;-89
2023/06/06 17:36:58;;;;;;;4.53;2.88;;;;;;;;;;10375015;28;20026;-90
2023/06/06 17:41:59;;;;;;;5.03;3.03;;;;;;;;;;10374064;28;20029;-90
2023/06/06 17:47:00;;;;;;;3.25;2.88;;;;;;;;;;10375377;28;20029;-89
2023/06/06 17:52:02;;;;;;;5.75;3.30;;;;;;;;;;10375876;28;20097;-89
2023/06/06 17:57:04;;;;;;;7.45;3.05;;;;;;;;;;10376769;28;20052;-88
2023/06/06 18:02:05;;;;;;;6.50;3.20;;;;;;;;;;10374682;28;20499;-89
2023/06/06 18:07:07;;;;;;;4.75;3.80;;;;;;;;;;10376458;28;20091;-92
2023/06/06 18:12:08;;;;;;;3.70;2.90;;;;;;;;;;10383014;28;20030;-91
2023/06/06 18:17:09;;;;;;;7.05;3.22;;;;;;;;;;10377859;28;20037;-90
2023/06/06 18:22:10;;;;;;;4.38;3.00;;;;;;;;;;10374545;28;20026;-91
2023/06/06 18:27:12;;;;;;;4.47;3.08;;;;;;;;;;10375197;28;20069;-91
2023/06/06 18:32:13;;;;;;;4.03;3.22;;;;;;;;;;10374857;28;20042;-91
2023/06/06 18:37:16;;;;;;;4.40;3.22;;;;;;;;;;10375270;28;20068;-91
2023/06/06 18:42:17;;;;;;;5.53;4.30;;;;;;;;;;10379972;28;20101;-90
2023/06/06 18:47:18;;;;;;;4.15;2.92;;;;;;;;;;10373874;28;20033;-90
2023/06/06 18:52:19;;;;;;;6.97;3.38;;;;;;;;;;10373181;28;20531;-90
2023/06/06 18:57:21;;;;;;;8.45;3.40;;;;;;;;;;10381592;28;20034;-90
2023/06/06 19:02:22;;;;;;;3.00;2.58;;;;;;;;;;10386529;28;20112;-90
2023/06/06 19:07:23;;;;;;;5.43;3.47;;;;;;;;;;10380895;28;20053;-90
2023/06/06 19:12:24;;;;;;;4.22;3.13;;;;;;;;;;10382246;28;20137;-90
